createdAt,value
2022-10-09T00:01:21.945Z,86.52
2022-10-09T00:03:52.539Z,87.02
2022-10-09T00:06:23.901Z,87.12
2022-10-09T00:08:53.632Z,87.28
2022-10-09T00:11:24.844Z,87.22
2022-10-09T00:13:54.059Z,87.49
2022-10-09T00:16:22.899Z,87.82
2022-10-09T00:18:51.745Z,88.18
2022-10-09T00:21:22.746Z,88.30
2022-10-09T00:23:51.756Z,89.24
2022-10-09T00:26:22.155Z,89.33
2022-10-09T00:28:50.834Z,89.77
2022-10-09T00:31:19.067Z,89.93
2022-10-09T00:33:47.689Z,89.59
2022-10-09T00:36:18.429Z,89.37
2022-10-09T00:38:46.711Z,89.63
2022-10-09T00:41:16.761Z,90.73
2022-10-09T00:43:49.378Z,91.16
2022-10-09T00:46:27.426Z,91.44
2022-10-09T00:49:10.985Z,91.33
2022-10-09T00:51:39.966Z,91.34
2022-10-09T00:54:13.371Z,90.91
2022-10-09T00:56:41.990Z,90.28
2022-10-09T00:59:12.545Z,89.23
2022-10-09T01:01:42.203Z,88.29
2022-10-09T01:04:10.416Z,88.21
2022-10-09T01:06:54.114Z,88.32
2022-10-09T01:09:27.268Z,87.85
2022-10-09T01:12:00.330Z,88.07
2022-10-09T01:14:34.889Z,87.98
2022-10-09T01:17:10.216Z,87.62
2022-10-09T01:20:05.586Z,88.06
2022-10-09T01:22:47.635Z,88.08
2022-10-09T01:25:23.236Z,88.48
2022-10-09T01:27:52.825Z,88.51
2022-10-09T01:30:20.998Z,88.97
2022-10-09T01:32:53.249Z,88.93
2022-10-09T01:35:23.078Z,89.48
2022-10-09T01:37:53.481Z,89.68
2022-10-09T01:40:23.098Z,89.51
2022-10-09T01:42:52.887Z,89.44
2022-10-09T01:45:20.911Z,89.90
2022-10-09T01:47:48.940Z,90.08
2022-10-09T01:50:24.686Z,89.91
2022-10-09T01:52:55.634Z,89.73
2022-10-09T01:55:33.630Z,89.72
2022-10-09T01:58:10.544Z,89.95
2022-10-09T02:00:41.544Z,89.08
2022-10-09T02:03:13.114Z,89.41
2022-10-09T02:05:43.338Z,89.78
2022-10-09T02:08:16.271Z,90.32
2022-10-09T02:10:46.826Z,91.29
2022-10-09T02:13:16.506Z,91.77
2022-10-09T02:15:49.554Z,91.73
2022-10-09T02:18:24.576Z,91.72
2022-10-09T02:20:58.250Z,91.64
2022-10-09T02:23:28.286Z,91.78
2022-10-09T02:25:56.721Z,91.85
2022-10-09T02:28:26.683Z,91.81
2022-10-09T02:31:04.073Z,91.17
2022-10-09T02:33:34.001Z,90.88
2022-10-09T02:36:02.715Z,90.91
2022-10-09T02:38:31.166Z,91.27
2022-10-09T02:41:00.226Z,92.15
2022-10-09T02:43:30.131Z,92.91
2022-10-09T02:45:58.315Z,92.98
2022-10-09T02:48:26.307Z,93.19
2022-10-09T02:50:54.236Z,93.77
2022-10-09T02:53:22.278Z,94.34
2022-10-09T02:55:50.252Z,94.46
2022-10-09T02:58:18.269Z,94.49
2022-10-09T03:00:50.729Z,93.87
2022-10-09T03:03:19.757Z,94.51
2022-10-09T03:05:48.696Z,94.74
2022-10-09T03:08:16.834Z,94.90
2022-10-09T03:10:45.317Z,94.88
2022-10-09T03:13:13.249Z,95.58
2022-10-09T03:15:41.492Z,95.37
2022-10-09T03:18:10.912Z,95.40
2022-10-09T03:20:39.587Z,94.96
2022-10-09T03:23:07.620Z,94.77
2022-10-09T03:25:35.973Z,95.30
2022-10-09T03:28:04.268Z,95.38
2022-10-09T03:30:32.313Z,94.71
2022-10-09T03:33:00.391Z,94.95
2022-10-09T03:35:29.726Z,95.77
2022-10-09T03:37:57.718Z,95.37
2022-10-09T03:40:25.738Z,94.73
2022-10-09T03:42:53.668Z,94.84
2022-10-09T03:45:21.662Z,94.87
2022-10-09T03:47:49.628Z,94.50
2022-10-09T03:50:17.875Z,95.15
2022-10-09T03:52:47.566Z,95.07
2022-10-09T03:55:15.982Z,95.45
2022-10-09T03:57:44.143Z,95.96
2022-10-09T04:00:13.639Z,96.45
2022-10-09T04:02:41.708Z,97.29
2022-10-09T04:05:10.437Z,97.50
2022-10-09T04:07:38.489Z,98.20
2022-10-09T04:10:08.679Z,97.86
2022-10-09T04:12:36.856Z,98.67
2022-10-09T04:15:05.568Z,99.07
2022-10-09T04:17:33.531Z,99.50
2022-10-09T04:20:01.530Z,99.38
2022-10-09T04:22:29.639Z,98.59
2022-10-09T04:24:57.612Z,97.84
2022-10-09T04:27:26.988Z,97.95
2022-10-09T04:29:54.985Z,98.43
2022-10-09T04:32:22.957Z,98.42
2022-10-09T04:34:51.121Z,99.13
2022-10-09T04:37:19.177Z,99.19
2022-10-09T04:39:47.199Z,99.31
2022-10-09T04:42:15.173Z,98.50
2022-10-09T04:44:44.695Z,98.59
2022-10-09T04:47:12.624Z,98.40
2022-10-09T04:49:40.841Z,97.86
2022-10-09T04:52:08.857Z,97.84
2022-10-09T04:54:36.829Z,98.45
2022-10-09T04:57:04.801Z,98.32
2022-10-09T04:59:33.973Z,97.74
2022-10-09T05:02:03.812Z,97.77
2022-10-09T05:04:32.990Z,97.66
2022-10-09T05:07:01.117Z,97.54
2022-10-09T05:09:29.328Z,96.93
2022-10-09T05:11:57.351Z,95.79
2022-10-09T05:14:25.713Z,94.61
2022-10-09T05:17:13.232Z,94.48
2022-10-09T05:19:43.723Z,95.36
2022-10-09T05:22:11.697Z,94.73
2022-10-09T05:24:39.697Z,94.03
2022-10-09T05:27:07.752Z,93.57
2022-10-09T05:29:35.765Z,93.20
2022-10-09T05:32:03.823Z,93.31
2022-10-09T05:34:33.837Z,92.86
2022-10-09T05:37:03.609Z,92.82
2022-10-09T05:39:32.477Z,92.08
2022-10-09T05:42:00.491Z,92.08
2022-10-09T05:44:28.492Z,91.55
2022-10-09T05:46:56.677Z,91.25
2022-10-09T05:49:25.030Z,90.91
2022-10-09T05:51:53.054Z,90.64
2022-10-09T05:54:22.943Z,90.60
2022-10-09T05:56:51.048Z,91.01
2022-10-09T05:59:20.558Z,90.31
2022-10-09T06:01:50.981Z,89.41
2022-10-09T06:04:21.932Z,89.42
2022-10-09T06:06:50.128Z,88.57
2022-10-09T06:09:19.213Z,86.80
2022-10-09T06:11:48.726Z,85.82
2022-10-09T06:14:16.727Z,86.03
2022-10-09T06:16:46.916Z,86.48
2022-10-09T06:19:17.384Z,86.47
2022-10-09T06:21:47.233Z,86.99
2022-10-09T06:24:25.568Z,86.13
2022-10-09T06:26:57.670Z,86.35
2022-10-09T06:29:26.091Z,84.27
2022-10-09T06:31:55.183Z,84.05
2022-10-09T06:34:23.744Z,85.27
2022-10-09T06:36:53.240Z,85.83
2022-10-09T06:39:23.123Z,84.82
2022-10-09T06:41:51.145Z,83.60
2022-10-09T06:44:22.371Z,84.00
2022-10-09T06:46:50.952Z,83.63
2022-10-09T06:49:19.426Z,82.93
2022-10-09T06:51:47.671Z,83.34
2022-10-09T06:54:20.214Z,82.57
2022-10-09T06:56:48.864Z,82.71
2022-10-09T06:59:16.970Z,81.95
2022-10-09T07:02:00.127Z,82.04
2022-10-09T07:04:30.479Z,82.13
2022-10-09T07:06:58.552Z,81.73
2022-10-09T07:09:27.157Z,81.19
2022-10-09T07:11:57.358Z,79.16
2022-10-09T07:14:25.799Z,75.99
2022-10-09T07:16:55.945Z,75.20
2022-10-09T07:19:25.001Z,73.65
2022-10-09T07:21:53.893Z,73.14
2022-10-09T07:24:24.868Z,73.21
2022-10-09T07:26:55.163Z,73.23
2022-10-09T07:29:23.217Z,72.82
2022-10-09T07:31:51.373Z,72.35
2022-10-09T07:34:20.762Z,72.04
2022-10-09T07:36:50.057Z,71.42
2022-10-09T07:39:20.166Z,71.40
2022-10-09T07:41:50.571Z,70.71
2022-10-09T07:44:18.708Z,68.59
2022-10-09T07:46:46.865Z,68.42
2022-10-09T07:49:15.280Z,67.93
2022-10-09T07:51:45.389Z,67.61
2022-10-09T07:54:13.574Z,67.26
2022-10-09T07:56:41.770Z,67.09
2022-10-09T07:59:21.246Z,66.67
2022-10-09T08:01:49.357Z,65.25
2022-10-09T08:04:17.697Z,65.20
2022-10-09T08:06:49.460Z,66.17
2022-10-09T08:09:21.082Z,64.43
2022-10-09T08:11:49.441Z,64.34
2022-10-09T08:14:20.901Z,62.81
2022-10-09T08:16:57.022Z,62.62
2022-10-09T08:19:25.722Z,62.68
2022-10-09T08:21:59.077Z,63.64
2022-10-09T08:24:32.040Z,61.52
2022-10-09T08:27:01.238Z,61.57
2022-10-09T08:29:29.327Z,60.37
2022-10-09T08:31:57.366Z,60.92
2022-10-09T08:34:25.504Z,60.46
2022-10-09T08:36:54.902Z,59.75
2022-10-09T08:39:23.564Z,59.56
2022-10-09T08:41:57.783Z,59.46
2022-10-09T08:44:29.207Z,59.33
2022-10-09T08:47:10.158Z,59.00
2022-10-09T08:49:46.288Z,58.40
2022-10-09T08:52:39.718Z,57.95
2022-10-09T08:55:17.960Z,58.31
2022-10-09T08:57:48.114Z,57.22
2022-10-09T09:00:19.251Z,57.67
2022-10-09T09:03:14.992Z,57.36
2022-10-09T09:05:49.933Z,56.17
2022-10-09T09:08:29.900Z,53.68
2022-10-09T09:11:17.048Z,54.15
2022-10-09T09:13:59.022Z,54.34
2022-10-09T09:16:43.083Z,54.15
2022-10-09T09:19:28.260Z,54.74
2022-10-09T09:21:57.218Z,53.83
2022-10-09T09:24:34.969Z,54.28
2022-10-09T09:27:10.916Z,52.89
2022-10-09T09:29:44.336Z,52.89
2022-10-09T09:32:19.058Z,52.71
2022-10-09T09:34:48.331Z,51.95
2022-10-09T09:37:16.972Z,51.61
2022-10-09T09:42:35.015Z,51.47
2022-10-09T09:45:06.660Z,51.86
2022-10-09T09:47:37.803Z,50.57
2022-10-09T09:50:18.524Z,50.78
2022-10-09T09:52:52.157Z,49.69
2022-10-09T09:55:29.023Z,48.55
2022-10-09T09:58:03.097Z,48.13
2022-10-09T10:00:31.670Z,47.03
2022-10-09T10:03:12.766Z,48.35
2022-10-09T10:05:42.286Z,49.53
2022-10-09T10:08:25.535Z,49.72
2022-10-09T10:10:57.713Z,47.13
2022-10-09T10:13:33.803Z,47.74
2022-10-09T10:16:03.150Z,46.31
2022-10-09T10:18:38.099Z,45.91
2022-10-09T10:21:11.938Z,45.33
2022-10-09T10:23:44.108Z,45.29
2022-10-09T10:26:24.420Z,45.24
2022-10-09T10:28:58.667Z,45.64
2022-10-09T10:31:47.895Z,45.86
2022-10-09T10:34:21.327Z,45.72
2022-10-09T10:37:02.439Z,45.60
2022-10-09T10:39:36.948Z,45.45
2022-10-09T10:42:13.497Z,45.52
2022-10-09T10:44:51.375Z,44.49
2022-10-09T10:47:25.448Z,44.21
2022-10-09T10:49:53.983Z,44.28
2022-10-09T10:52:37.142Z,43.69
2022-10-09T10:55:20.982Z,44.03
2022-10-09T10:57:59.617Z,43.67
2022-10-09T11:00:28.761Z,43.84
2022-10-09T11:03:28.947Z,43.97
2022-10-09T11:06:05.823Z,43.87
2022-10-09T11:08:47.775Z,43.04
2022-10-09T11:11:23.753Z,42.78
2022-10-09T11:14:06.383Z,43.00
2022-10-09T11:16:50.399Z,42.79
2022-10-09T11:19:35.293Z,42.94
2022-10-09T11:22:11.245Z,42.73
2022-10-09T11:24:58.345Z,42.55
2022-10-09T11:27:40.385Z,42.43
2022-10-09T11:30:13.759Z,42.42
2022-10-09T11:32:53.985Z,42.35
2022-10-09T11:35:23.299Z,43.34
2022-10-09T11:37:59.907Z,43.17
2022-10-09T11:40:33.382Z,42.40
2022-10-09T11:43:10.882Z,41.91
2022-10-09T11:45:47.994Z,41.19
2022-10-09T11:48:23.402Z,41.84
2022-10-09T11:51:02.012Z,41.73
2022-10-09T11:53:34.532Z,41.57
2022-10-09T11:56:05.187Z,42.16
2022-10-09T11:58:33.860Z,41.50
2022-10-09T12:01:14.933Z,41.18
2022-10-09T12:03:43.399Z,40.47
2022-10-09T12:06:13.495Z,40.73
2022-10-09T12:08:44.590Z,41.18
2022-10-09T12:11:16.595Z,41.21
2022-10-09T12:13:51.569Z,40.78
2022-10-09T12:16:37.437Z,40.90
2022-10-09T12:19:13.316Z,40.63
2022-10-09T12:21:47.593Z,41.09
2022-10-09T12:24:19.117Z,40.96
2022-10-09T12:26:48.359Z,40.39
2022-10-09T12:29:25.887Z,41.00
2022-10-09T12:31:59.636Z,40.63
2022-10-09T12:34:32.255Z,40.99
2022-10-09T12:37:16.070Z,41.14
2022-10-09T12:39:44.909Z,40.98
2022-10-09T12:42:24.844Z,40.83
2022-10-09T12:44:55.371Z,40.65
2022-10-09T12:47:27.747Z,40.62
2022-10-09T12:49:58.137Z,40.70
2022-10-09T12:52:26.333Z,40.74
2022-10-09T12:54:54.417Z,40.89
2022-10-09T12:57:25.361Z,40.27
2022-10-09T12:59:56.295Z,40.25
2022-10-09T13:02:25.796Z,40.32
2022-10-09T13:04:59.531Z,40.40
2022-10-09T13:07:29.946Z,39.63
2022-10-09T13:10:04.047Z,39.66
2022-10-09T13:12:33.615Z,39.92
2022-10-09T13:15:02.596Z,39.36
2022-10-09T13:17:34.444Z,39.81
2022-10-09T13:20:04.121Z,39.75
2022-10-09T13:22:35.125Z,40.01
2022-10-09T13:25:04.201Z,39.38
2022-10-09T13:27:35.330Z,40.06
2022-10-09T13:30:03.316Z,40.42
2022-10-09T13:32:32.926Z,40.38
2022-10-09T13:35:00.866Z,40.78
2022-10-09T13:37:28.904Z,39.95
2022-10-09T13:39:58.590Z,40.32
2022-10-09T13:42:29.487Z,40.96
2022-10-09T13:44:57.477Z,41.71
2022-10-09T13:47:25.540Z,42.41
2022-10-09T13:49:55.611Z,41.55
2022-10-09T13:52:23.535Z,39.83
2022-10-09T13:54:51.712Z,39.37
2022-10-09T13:57:20.081Z,38.93
2022-10-09T13:59:48.132Z,39.07
2022-10-09T14:02:16.344Z,39.30
2022-10-09T14:04:44.418Z,38.92
2022-10-09T14:07:13.883Z,38.65
2022-10-09T14:09:43.038Z,38.67
2022-10-09T14:12:14.329Z,38.77
2022-10-09T14:14:43.702Z,38.70
2022-10-09T14:17:12.007Z,39.03
2022-10-09T14:19:41.294Z,38.96
2022-10-09T14:22:09.491Z,38.57
2022-10-09T14:24:39.178Z,38.53
2022-10-09T14:27:08.003Z,38.40
2022-10-09T14:29:37.628Z,38.68
2022-10-09T14:32:06.211Z,38.93
2022-10-09T14:34:34.160Z,38.88
2022-10-09T14:37:07.344Z,39.28
2022-10-09T14:39:44.368Z,39.32
2022-10-09T14:42:12.373Z,40.27
2022-10-09T14:44:42.457Z,40.84
2022-10-09T14:47:10.540Z,41.34
2022-10-09T14:49:38.714Z,41.16
2022-10-09T14:52:06.911Z,40.81
2022-10-09T14:54:35.323Z,40.59
2022-10-09T14:57:05.821Z,40.61
2022-10-09T14:59:33.816Z,41.37
2022-10-09T15:02:01.957Z,41.20
2022-10-09T15:04:30.621Z,40.94
2022-10-09T15:06:58.731Z,40.47
2022-10-09T15:09:26.851Z,40.61
2022-10-09T15:11:54.955Z,40.62
2022-10-09T15:14:24.461Z,40.86
2022-10-09T15:16:52.460Z,40.91
2022-10-09T15:19:20.635Z,41.22
2022-10-09T15:21:48.679Z,41.42
2022-10-09T15:24:16.706Z,41.19
2022-10-09T15:26:44.694Z,41.34
2022-10-09T15:29:12.979Z,41.35
2022-10-09T15:31:43.967Z,41.35
2022-10-09T15:34:18.002Z,41.66
2022-10-09T15:36:46.304Z,41.88
2022-10-09T15:39:15.030Z,42.11
2022-10-09T15:41:44.729Z,42.04
2022-10-09T15:44:17.428Z,42.53
2022-10-09T15:46:48.708Z,42.74
2022-10-09T15:49:16.742Z,42.57
2022-10-09T15:51:44.865Z,42.73
2022-10-09T15:54:15.550Z,42.79
2022-10-09T15:56:44.043Z,43.08
2022-10-09T15:59:12.923Z,43.27
2022-10-09T16:01:41.149Z,43.46
2022-10-09T16:04:11.012Z,43.65
2022-10-09T16:06:39.174Z,44.13
2022-10-09T16:09:07.256Z,44.45
2022-10-09T16:11:35.493Z,44.77
2022-10-09T16:14:05.775Z,45.19
2022-10-09T16:16:37.245Z,45.73
2022-10-09T16:19:05.761Z,46.65
2022-10-09T16:21:36.072Z,47.42
2022-10-09T16:24:04.286Z,47.50
2022-10-09T16:26:32.708Z,47.80
2022-10-09T16:29:01.217Z,48.07
2022-10-09T16:31:31.856Z,48.04
2022-10-09T16:34:00.146Z,48.85
2022-10-09T16:36:28.520Z,48.84
2022-10-09T16:38:58.729Z,49.19
2022-10-09T16:41:27.403Z,49.54
2022-10-09T16:44:00.013Z,50.17
2022-10-09T16:46:30.683Z,50.61
2022-10-09T16:49:00.120Z,50.73
2022-10-09T16:51:30.873Z,51.30
2022-10-09T16:54:05.353Z,51.37
2022-10-09T16:56:35.049Z,51.85
2022-10-09T16:59:05.844Z,51.67
2022-10-09T17:01:36.125Z,52.51
2022-10-09T17:04:04.133Z,53.04
2022-10-09T17:06:32.135Z,53.50
2022-10-09T17:09:01.826Z,53.88
2022-10-09T17:11:33.074Z,54.16
2022-10-09T17:14:01.156Z,54.59
2022-10-09T17:16:32.861Z,55.20
2022-10-09T17:19:01.508Z,55.69
2022-10-09T17:21:34.146Z,55.79
2022-10-09T17:24:07.795Z,55.94
2022-10-09T17:26:36.341Z,56.29
2022-10-09T17:29:07.514Z,56.01
2022-10-09T17:31:35.822Z,56.42
2022-10-09T17:34:06.002Z,56.81
2022-10-09T17:36:36.575Z,57.21
2022-10-09T17:39:09.063Z,57.58
2022-10-09T17:41:37.344Z,57.73
2022-10-09T17:44:07.129Z,57.65
2022-10-09T17:46:35.368Z,58.05
2022-10-09T17:49:03.704Z,58.25
2022-10-09T17:51:33.652Z,58.36
2022-10-09T17:54:05.859Z,58.81
2022-10-09T17:56:37.803Z,58.98
2022-10-09T17:59:07.579Z,59.11
2022-10-09T18:01:36.268Z,59.83
2022-10-09T18:04:04.819Z,60.02
2022-10-09T18:06:34.895Z,60.25
2022-10-09T18:09:03.407Z,60.57
2022-10-09T18:11:31.376Z,61.08
2022-10-09T18:14:01.585Z,61.09
2022-10-09T18:16:35.714Z,61.39
2022-10-09T18:19:06.650Z,61.84
2022-10-09T18:21:35.751Z,62.15
2022-10-09T18:24:03.924Z,62.24
2022-10-09T18:26:32.109Z,62.86
2022-10-09T18:29:02.281Z,63.42
2022-10-09T18:31:31.258Z,63.35
2022-10-09T18:34:00.212Z,63.28
2022-10-09T18:36:31.753Z,63.26
2022-10-09T18:39:02.304Z,65.46
2022-10-09T18:41:30.671Z,65.98
2022-10-09T18:44:01.316Z,66.33
2022-10-09T18:46:35.339Z,66.38
2022-10-09T18:49:04.187Z,67.21
2022-10-09T18:51:32.584Z,67.40
2022-10-09T18:54:04.143Z,67.64
2022-10-09T18:56:34.057Z,67.97
2022-10-09T18:59:05.175Z,67.96
2022-10-09T19:01:34.738Z,68.41
2022-10-09T19:04:02.897Z,68.57
2022-10-09T19:06:31.132Z,69.36
2022-10-09T19:09:00.930Z,69.72
2022-10-09T19:11:29.340Z,69.72
2022-10-09T19:13:59.751Z,70.03
2022-10-09T19:16:28.362Z,69.96
2022-10-09T19:18:58.629Z,69.87
2022-10-09T19:21:27.172Z,70.29
2022-10-09T19:23:56.561Z,70.85
2022-10-09T19:26:25.358Z,71.28
2022-10-09T19:28:53.484Z,71.49
2022-10-09T19:31:21.930Z,71.82
2022-10-09T19:33:50.824Z,72.46
2022-10-09T19:36:20.726Z,73.55
2022-10-09T19:38:48.799Z,74.32
2022-10-09T19:41:17.494Z,74.49
2022-10-09T19:43:45.942Z,74.50
2022-10-09T19:46:17.294Z,74.61
2022-10-09T19:48:46.608Z,75.00
2022-10-09T19:51:16.436Z,74.97
2022-10-09T19:53:45.869Z,75.20
2022-10-09T19:56:16.513Z,75.20
2022-10-09T19:58:46.437Z,75.17
2022-10-09T20:01:16.053Z,75.28
2022-10-09T20:03:45.450Z,75.39
2022-10-09T20:06:13.803Z,75.62
2022-10-09T20:08:46.347Z,75.66
2022-10-09T20:11:15.288Z,75.95
2022-10-09T20:13:44.175Z,75.92
2022-10-09T20:16:14.967Z,76.25
2022-10-09T20:18:43.936Z,76.57
2022-10-09T20:21:13.426Z,76.98
2022-10-09T20:23:42.018Z,77.13
2022-10-09T20:26:14.103Z,77.04
2022-10-09T20:28:42.595Z,77.09
2022-10-09T20:31:14.859Z,77.05
2022-10-09T20:33:43.888Z,77.17
2022-10-09T20:36:19.910Z,76.97
2022-10-09T20:38:48.109Z,77.31
2022-10-09T20:41:17.683Z,77.13
2022-10-09T20:43:45.806Z,77.50
2022-10-09T20:46:15.516Z,77.46
2022-10-09T20:48:44.248Z,77.88
2022-10-09T20:51:12.368Z,78.16
2022-10-09T20:53:40.391Z,78.47
2022-10-09T20:56:10.134Z,78.96
2022-10-09T20:58:39.790Z,79.24
2022-10-09T21:01:09.172Z,80.08
2022-10-09T21:03:38.599Z,79.69
2022-10-09T21:06:08.155Z,79.83
2022-10-09T21:08:36.982Z,80.22
2022-10-09T21:11:07.186Z,80.84
2022-10-09T21:13:36.156Z,81.70
2022-10-09T21:16:08.596Z,82.12
2022-10-09T21:18:37.734Z,82.02
2022-10-09T21:21:07.707Z,82.13
2022-10-09T21:23:37.180Z,82.42
2022-10-09T21:26:05.398Z,82.29
2022-10-09T21:28:33.414Z,82.48
2022-10-09T21:31:01.460Z,82.71
2022-10-09T21:33:30.847Z,82.85
2022-10-09T21:35:58.965Z,83.11
2022-10-09T21:38:26.926Z,82.92
2022-10-09T21:40:54.947Z,83.57
2022-10-09T21:43:22.926Z,83.97
2022-10-09T21:45:51.559Z,84.41
2022-10-09T21:48:19.658Z,84.20
2022-10-09T21:50:49.104Z,84.77
2022-10-09T21:53:17.117Z,84.45
2022-10-09T21:55:45.234Z,84.63
2022-10-09T21:58:13.197Z,85.02
2022-10-09T22:00:47.408Z,84.38
2022-10-09T22:03:15.387Z,84.90
2022-10-09T22:05:43.460Z,85.61
2022-10-09T22:08:12.839Z,85.44
2022-10-09T22:10:42.864Z,85.86
2022-10-09T22:13:10.942Z,86.39
2022-10-09T22:15:41.654Z,85.85
2022-10-09T22:18:09.727Z,85.37
2022-10-09T22:20:41.741Z,85.31
2022-10-09T22:23:09.846Z,85.77
2022-10-09T22:25:40.326Z,85.98
2022-10-09T22:28:08.605Z,86.53
2022-10-09T22:30:37.058Z,86.73
2022-10-09T22:33:05.239Z,87.08
2022-10-09T22:35:33.227Z,87.22
2022-10-09T22:38:01.226Z,87.02
2022-10-09T22:40:29.187Z,87.33
2022-10-09T22:42:58.644Z,88.22
2022-10-09T22:45:26.651Z,88.23
2022-10-09T22:47:54.625Z,88.79
2022-10-09T22:50:22.624Z,88.78
2022-10-09T22:52:51.744Z,89.66
2022-10-09T22:55:19.865Z,89.99
2022-10-09T22:57:47.873Z,90.51
2022-10-09T23:00:17.696Z,91.13
2022-10-09T23:02:45.653Z,92.11
2022-10-09T23:05:13.647Z,92.12
2022-10-09T23:07:41.561Z,92.02
2022-10-09T23:10:10.254Z,92.57
2022-10-09T23:12:38.292Z,92.38
2022-10-09T23:15:07.409Z,92.94
2022-10-09T23:17:36.784Z,93.05
2022-10-09T23:20:05.113Z,93.74
2022-10-09T23:22:33.105Z,94.20
2022-10-09T23:25:01.172Z,94.26
2022-10-09T23:27:29.321Z,94.58
2022-10-09T23:29:57.306Z,94.86
2022-10-09T23:32:25.292Z,95.08
2022-10-09T23:34:54.814Z,95.11
2022-10-09T23:37:23.413Z,95.42
2022-10-09T23:39:51.405Z,96.54
2022-10-09T23:42:19.606Z,96.69
2022-10-09T23:44:47.648Z,97.09
2022-10-09T23:47:15.574Z,97.34
2022-10-09T23:49:43.667Z,97.34
2022-10-09T23:52:13.013Z,97.80
2022-10-09T23:54:41.494Z,97.44
2022-10-09T23:57:09.555Z,97.66
2022-10-09T23:59:38.729Z,97.31
